Main page
METAR-TAF:

METAR-TAF

Airports :

Seattle–Tacoma International Airport

Seattle / Tacoma, Washington, United States

latitude: 47-26-41N, longitude: 122-18-49W, elevation: 130 m

Current weather observation

The report was made 28 minutes ago, at 03:53 UTC
Wind 5 kt from the North
Temperature 14°C
Humidity 67%
Pressure 1024 hPa
Visibility: 16.1 km
Clear sky

METAR: KSEA 170353Z 01005KT 10SM CLR 14/08 A3023 RMK AO2 SLP245 T01390083

Time: 21:21 (04:21 UTC)

Forecast

The report was made 1 hour and 14 minutes ago, at 03:07 UTC
Forecast valid from 17 at 03 UTC to 18 at 06 UTC
Wind 5 kt from the North
Visibility: 10 km
Few clouds at a height of 25000 ft

TAF: KSEA 170307Z 1703/1806 01005KT P6SM FEW250

Weather observations and forecasts of more than 4000 airports (METAR and TAF reports).

The available stations are represented by yellow and red dots on the map.

Hover mouse over dot to see the name of the station.

Then click to see weather observations and forecasts.

To change the map : click on the green buttons with a black cross to zoom in, on the green button with a dash to zoom out, or on the green arrows for adjacent maps.


METAR-TAF: